Terminal Aerodrome Forecast
Issued by NWS Bismarck, ND

Home | Current Version | Previous Version | Text Only | Print | Product List | Glossary Off
Versions: 1 2 3 4 5 6 7 8 9 10 11 12 13 14 15 16

000
FTUS43 KBIS 242300
TAFISN
TAF
KISN 242331Z 2500/2524 28015KT P6SM -SHRA SCT008 OVC025
     FM251000 31014KT P6SM VCSH OVC008
     FM251700 32014KT P6SM BKN015 OVC035
     FM252300 31013KT P6SM SCT015 BKN035=

USA.gov is the U.S. government's official web portal to all federal, state and local government web resources and services.